Time;durP1;ratioP1;P1;durP2;ratioP2;P2;SDS_P1;SDS_P2;PMS_P1;PMS_P2;Temp;Humidity;BMP_temperature;BMP_pressure;BME280_temperature;BME280_humidity;BME280_pressure;Samples;Min_cycle;Max_cycle;Signal;HPM_P1;HPM_P2
2022/07/05 00:01:53;;;;;;;9.13;6.95;;;;;;;;;;5111818;27;20416;-72
2022/07/05 00:05:53;;;;;;;9.70;7.50;;;;;;;;;;5111046;27;20381;-72
2022/07/05 00:10:51;;;;;;;9.77;7.53;;;;;;;;;;5111802;27;20953;-72
2022/07/05 00:13:17;;;;;;;10.73;7.32;;;;;;;;;;5110961;28;20059;-72
2022/07/05 00:15:43;;;;;;;9.85;7.57;;;;;;;;;;5111311;28;20016;-72
2022/07/05 00:18:09;;;;;;;10.57;7.43;;;;;;;;;;5111270;28;20034;-72
2022/07/05 00:20:35;;;;;;;9.95;7.15;;;;;;;;;;5109544;28;20023;-72
2022/07/05 00:23:01;;;;;;;12.52;7.15;;;;;;;;;;5111162;28;20023;-73
2022/07/05 00:25:27;;;;;;;10.60;8.15;;;;;;;;;;5110739;28;20028;-73
2022/07/05 00:27:54;;;;;;;9.50;7.47;;;;;;;;;;5111115;28;20468;-73
2022/07/05 00:30:20;;;;;;;10.15;7.10;;;;;;;;;;5109670;28;20120;-73
2022/07/05 00:32:59;;;;;;;9.10;6.68;;;;;;;;;;5111174;27;20393;-72
2022/07/05 00:35:25;;;;;;;12.18;7.40;;;;;;;;;;5111606;28;20047;-73
2022/07/05 00:37:51;;;;;;;11.65;7.70;;;;;;;;;;5111397;28;20024;-73
2022/07/05 00:41:16;;;;;;;9.80;7.32;;;;;;;;;;5111145;27;20764;-73
2022/07/05 00:43:56;;;;;;;10.25;7.32;;;;;;;;;;5111322;28;20027;-73
2022/07/05 00:46:22;;;;;;;10.55;6.90;;;;;;;;;;5112476;28;20363;-73
2022/07/05 00:48:48;;;;;;;8.70;6.47;;;;;;;;;;5110813;28;20361;-73
2022/07/05 00:51:15;;;;;;;10.30;6.97;;;;;;;;;;5126978;28;20434;-73
2022/07/05 00:54:36;;;;;;;9.90;7.10;;;;;;;;;;5111460;27;20397;-72
2022/07/05 00:57:02;;;;;;;8.65;6.90;;;;;;;;;;5111434;28;20020;-73
2022/07/05 00:59:29;;;;;;;8.63;6.22;;;;;;;;;;5111387;28;20402;-73
2022/07/05 01:02:28;;;;;;;10.35;6.75;;;;;;;;;;5111172;27;20747;-73
2022/07/05 01:04:54;;;;;;;12.52;7.35;;;;;;;;;;5111392;28;20483;-73
2022/07/05 01:07:21;;;;;;;8.85;6.68;;;;;;;;;;5110017;28;20027;-74
2022/07/05 01:09:48;;;;;;;9.68;7.50;;;;;;;;;;5109646;28;20019;-73
2022/07/05 01:12:14;;;;;;;11.88;8.07;;;;;;;;;;5111267;28;20472;-74
2022/07/05 01:14:42;;;;;;;9.48;6.75;;;;;;;;;;5111022;28;20091;-74
2022/07/05 01:17:08;;;;;;;10.20;7.63;;;;;;;;;;5111508;28;20153;-73
2022/07/05 01:19:34;;;;;;;9.45;7.32;;;;;;;;;;5111084;28;20072;-75
2022/07/05 01:22:04;;;;;;;11.07;7.45;;;;;;;;;;5110585;28;20059;-74
2022/07/05 01:25:03;;;;;;;10.05;7.28;;;;;;;;;;5152927;27;20114;-72
2022/07/05 01:27:29;;;;;;;10.10;7.78;;;;;;;;;;5131827;28;20049;-73
2022/07/05 01:30:07;;;;;;;10.98;7.65;;;;;;;;;;5111063;27;20424;-73
2022/07/05 01:37:07;;;;;;;8.57;6.82;;;;;;;;;;5111304;27;20424;-73
2022/07/05 01:39:33;;;;;;;9.25;7.55;;;;;;;;;;5111322;28;20028;-73
2022/07/05 01:41:59;;;;;;;9.75;7.40;;;;;;;;;;5111253;28;20094;-73
2022/07/05 01:47:03;;;;;;;9.93;7.20;;;;;;;;;;5111921;27;20393;-72
2022/07/05 01:52:49;;;;;;;13.13;8.02;;;;;;;;;;5111698;27;20113;-72
2022/07/05 01:57:53;;;;;;;10.68;7.40;;;;;;;;;;5111312;27;20458;-72
2022/07/05 02:02:01;;;;;;;10.00;7.47;;;;;;;;;;5111530;27;20441;-72
2022/07/05 02:04:28;;;;;;;10.55;7.20;;;;;;;;;;5110985;28;20020;-72
2022/07/05 02:06:54;;;;;;;8.70;6.57;;;;;;;;;;5111311;28;20028;-72
2022/07/05 02:09:20;;;;;;;11.43;7.15;;;;;;;;;;5111340;28;20016;-73
2022/07/05 02:11:46;;;;;;;9.40;6.65;;;;;;;;;;5111079;28;20028;-73
2022/07/05 02:16:25;;;;;;;8.88;6.78;;;;;;;;;;5112133;27;20434;-72
2022/07/05 02:18:51;;;;;;;9.52;7.22;;;;;;;;;;5110956;28;20516;-72
2022/07/05 02:22:28;;;;;;;9.68;6.80;;;;;;;;;;5112193;27;20458;-72
2022/07/05 02:24:54;;;;;;;9.38;6.45;;;;;;;;;;5111411;28;20024;-73
2022/07/05 02:27:50;;;;;;;9.20;6.78;;;;;;;;;;5112124;27;20397;-72
2022/07/05 02:31:58;;;;;;;10.95;7.25;;;;;;;;;;5111969;27;20442;-72
2022/07/05 02:37:18;;;;;;;9.77;7.38;;;;;;;;;;5112200;27;20903;-73
2022/07/05 02:41:32;;;;;;;10.25;7.97;;;;;;;;;;5111803;27;20494;-74
2022/07/05 02:43:58;;;;;;;13.00;8.90;;;;;;;;;;5110138;28;20028;-73
2022/07/05 02:46:24;;;;;;;11.63;8.60;;;;;;;;;;5111192;28;20077;-73
2022/07/05 02:49:36;;;;;;;13.45;9.73;;;;;;;;;;5111396;27;20918;-72
2022/07/05 02:52:02;;;;;;;13.95;9.88;;;;;;;;;;5110091;28;20054;-72
2022/07/05 02:54:28;;;;;;;14.10;9.50;;;;;;;;;;5110918;28;20028;-73
2022/07/05 02:56:54;;;;;;;17.15;10.48;;;;;;;;;;5111311;28;20020;-72
2022/07/05 02:59:20;;;;;;;11.40;8.60;;;;;;;;;;5109971;28;20043;-72
2022/07/05 03:01:47;;;;;;;11.75;9.10;;;;;;;;;;5109489;28;20077;-72
2022/07/05 03:04:13;;;;;;;12.18;9.07;;;;;;;;;;5111197;28;20024;-72
2022/07/05 03:06:39;;;;;;;11.52;8.77;;;;;;;;;;5109816;28;20020;-72
2022/07/05 03:09:05;;;;;;;11.02;7.40;;;;;;;;;;5110648;28;20556;-72
2022/07/05 03:11:31;;;;;;;9.73;7.63;;;;;;;;;;5111205;28;20047;-73
2022/07/05 03:15:40;;;;;;;14.45;9.23;;;;;;;;;;5111036;27;20420;-73
2022/07/05 03:18:06;;;;;;;10.82;8.32;;;;;;;;;;5111325;28;20077;-73
2022/07/05 03:20:32;;;;;;;11.73;8.43;;;;;;;;;;5111495;28;20480;-73
2022/07/05 03:22:58;;;;;;;12.60;8.68;;;;;;;;;;5110868;28;20024;-73
2022/07/05 03:25:40;;;;;;;11.52;8.18;;;;;;;;;;5112215;27;20408;-73
2022/07/05 03:28:18;;;;;;;11.05;8.70;;;;;;;;;;5111693;27;20409;-72
2022/07/05 03:30:44;;;;;;;12.63;10.13;;;;;;;;;;5111366;28;20472;-73
2022/07/05 03:35:43;;;;;;;11.52;7.70;;;;;;;;;;5111474;27;20392;-72
2022/07/05 03:40:08;;;;;;;10.95;8.23;;;;;;;;;;5112138;27;20401;-73
2022/07/05 03:42:35;;;;;;;11.60;8.35;;;;;;;;;;5110959;28;20103;-73
2022/07/05 03:45:13;;;;;;;10.93;8.35;;;;;;;;;;5111562;27;20388;-73
2022/07/05 03:47:39;;;;;;;12.38;9.23;;;;;;;;;;5110122;28;20028;-73
2022/07/05 03:50:05;;;;;;;11.43;8.40;;;;;;;;;;5109672;28;20020;-73
2022/07/05 03:58:50;;;;;;;12.13;9.23;;;;;;;;;;5071166;28;20399;-73
2022/07/05 04:01:16;;;;;;;13.75;9.30;;;;;;;;;;5070816;28;20024;-73
2022/07/05 04:03:42;;;;;;;13.23;9.02;;;;;;;;;;5070374;28;20028;-73
2022/07/05 04:06:09;;;;;;;12.93;8.55;;;;;;;;;;5070728;28;20020;-73
2022/07/05 04:08:35;;;;;;;11.77;7.60;;;;;;;;;;5070650;28;20024;-73
2022/07/05 04:11:01;;;;;;;9.55;7.43;;;;;;;;;;5070403;28;20111;-73
2022/07/05 04:13:28;;;;;;;11.85;8.02;;;;;;;;;;5070613;28;20082;-73
2022/07/05 04:16:27;;;;;;;9.57;7.50;;;;;;;;;;5112266;27;20381;-73
2022/07/05 04:18:53;;;;;;;10.95;8.10;;;;;;;;;;5109641;28;20488;-73
2022/07/05 04:21:19;;;;;;;10.57;8.48;;;;;;;;;;5109981;28;20418;-73
2022/07/05 04:23:45;;;;;;;10.95;8.45;;;;;;;;;;5111248;28;20020;-73
2022/07/05 04:26:11;;;;;;;11.02;8.30;;;;;;;;;;5110921;28;20022;-73
2022/07/05 04:28:57;;;;;;;12.70;8.20;;;;;;;;;;5092028;27;20452;-72
2022/07/05 04:31:23;;;;;;;9.80;7.75;;;;;;;;;;5091034;28;20107;-73
2022/07/05 04:43:34;;;;;;;11.20;8.35;;;;;;;;;;5112240;27;20446;-73
2022/07/05 04:46:00;;;;;;;10.35;8.00;;;;;;;;;;5110982;28;20483;-73
2022/07/05 04:48:27;;;;;;;10.77;8.25;;;;;;;;;;5111367;28;20055;-73
2022/07/05 04:54:56;;;;;;;10.50;8.23;;;;;;;;;;5111521;27;20401;-72
2022/07/05 04:57:22;;;;;;;10.32;7.70;;;;;;;;;;5111276;28;20391;-73
2022/07/05 04:59:49;;;;;;;9.18;6.97;;;;;;;;;;5111054;28;20030;-72
2022/07/05 05:02:15;;;;;;;11.75;7.97;;;;;;;;;;5112726;28;20536;-75
2022/07/05 05:04:41;;;;;;;9.18;7.10;;;;;;;;;;5111240;28;20468;-81
2022/07/05 05:07:07;;;;;;;10.07;7.80;;;;;;;;;;5109708;28;20066;-80
2022/07/05 05:10:00;;;;;;;11.40;8.10;;;;;;;;;;5111565;27;20462;-80
2022/07/05 05:12:26;;;;;;;14.02;8.90;;;;;;;;;;5111455;28;20023;-80
2022/07/05 05:15:45;;;;;;;10.13;8.15;;;;;;;;;;5111193;27;20385;-78
2022/07/05 05:18:11;;;;;;;13.05;8.73;;;;;;;;;;5111355;28;20085;-79
2022/07/05 05:20:37;;;;;;;9.90;8.13;;;;;;;;;;5110196;28;20426;-76
2022/07/05 05:25:30;;;;;;;12.70;9.57;;;;;;;;;;5152934;27;20315;-75
2022/07/05 05:27:57;;;;;;;10.43;7.40;;;;;;;;;;5133532;27;20023;-75
2022/07/05 05:30:50;;;;;;;9.35;7.30;;;;;;;;;;5111502;27;20415;-78
2022/07/05 05:33:16;;;;;;;9.15;7.75;;;;;;;;;;5106524;28;20028;-73
2022/07/05 05:35:43;;;;;;;10.05;7.70;;;;;;;;;;5104547;28;20024;-71
2022/07/05 05:38:09;;;;;;;10.88;8.48;;;;;;;;;;5107894;28;20045;-71
2022/07/05 05:41:08;;;;;;;10.48;8.35;;;;;;;;;;5068691;28;20392;-79
2022/07/05 05:43:34;;;;;;;11.13;9.10;;;;;;;;;;5069093;28;20473;-78
2022/07/05 05:46:00;;;;;;;11.27;8.48;;;;;;;;;;5067527;28;20056;-78
2022/07/05 05:48:26;;;;;;;9.85;8.02;;;;;;;;;;5067225;28;20044;-76
2022/07/05 05:50:52;;;;;;;10.95;8.18;;;;;;;;;;5068824;28;20017;-76
2022/07/05 05:53:19;;;;;;;9.35;7.13;;;;;;;;;;5066245;28;20021;-76
2022/07/05 05:55:45;;;;;;;10.63;7.32;;;;;;;;;;5068863;28;20475;-76
2022/07/05 05:58:14;;;;;;;10.73;8.07;;;;;;;;;;5068327;28;20078;-77
2022/07/05 06:00:41;;;;;;;10.43;8.02;;;;;;;;;;5068274;28;20511;-77
2022/07/05 06:03:07;;;;;;;11.02;8.15;;;;;;;;;;5066886;28;20377;-76
2022/07/05 06:05:33;;;;;;;15.27;7.93;;;;;;;;;;5069113;28;20024;-76
2022/07/05 06:07:59;;;;;;;10.90;7.25;;;;;;;;;;5068929;28;20045;-76
2022/07/05 06:10:27;;;;;;;10.82;7.63;;;;;;;;;;5066634;28;20039;-75
2022/07/05 06:12:53;;;;;;;12.05;8.05;;;;;;;;;;5067776;28;20112;-75
2022/07/05 06:15:51;;;;;;;10.30;8.40;;;;;;;;;;5109489;27;20390;-76
2022/07/05 06:18:17;;;;;;;11.80;8.20;;;;;;;;;;5107348;28;20028;-76
2022/07/05 06:20:43;;;;;;;10.90;8.02;;;;;;;;;;5109385;28;20031;-77
2022/07/05 06:23:09;;;;;;;11.25;8.43;;;;;;;;;;5108918;28;20024;-77
2022/07/05 06:25:36;;;;;;;12.30;8.88;;;;;;;;;;5104452;28;20081;-75
2022/07/05 06:28:07;;;;;;;11.52;8.40;;;;;;;;;;5104178;28;20020;-74
2022/07/05 06:30:34;;;;;;;10.95;8.18;;;;;;;;;;5106854;28;20024;-74
2022/07/05 06:33:00;;;;;;;11.02;7.47;;;;;;;;;;5101644;28;20070;-76
2022/07/05 06:35:27;;;;;;;9.38;6.82;;;;;;;;;;5102661;28;20089;-75
2022/07/05 06:38:47;;;;;;;9.50;7.18;;;;;;;;;;5068622;28;20395;-75
2022/07/05 06:41:13;;;;;;;13.20;8.20;;;;;;;;;;5070051;28;20074;-71
2022/07/05 06:43:39;;;;;;;9.88;7.78;;;;;;;;;;5067486;28;20025;-74
2022/07/05 06:46:05;;;;;;;8.82;7.28;;;;;;;;;;5067728;28;20112;-74
2022/07/05 06:48:31;;;;;;;10.27;7.30;;;;;;;;;;5069185;28;20095;-73
2022/07/05 06:50:57;;;;;;;9.52;7.05;;;;;;;;;;5061115;28;20033;-70
2022/07/05 06:53:24;;;;;;;10.40;7.80;;;;;;;;;;5061506;28;20029;-73
2022/07/05 06:55:50;;;;;;;10.55;8.13;;;;;;;;;;5069897;28;20400;-73
2022/07/05 06:58:47;;;;;;;11.20;7.78;;;;;;;;;;5110278;27;20754;-74
2022/07/05 07:01:13;;;;;;;13.77;7.18;;;;;;;;;;5109417;28;20067;-72
2022/07/05 07:03:39;;;;;;;11.13;7.35;;;;;;;;;;5111001;28;20028;-72
2022/07/05 07:06:06;;;;;;;10.32;7.15;;;;;;;;;;5110474;28;20024;-72
2022/07/05 07:11:17;;;;;;;9.45;7.32;;;;;;;;;;5110725;28;20034;-71
2022/07/05 07:13:43;;;;;;;12.55;7.65;;;;;;;;;;5109004;28;20056;-72
2022/07/05 07:16:09;;;;;;;10.85;7.95;;;;;;;;;;5110228;28;20045;-72
2022/07/05 07:18:35;;;;;;;10.00;7.38;;;;;;;;;;5110791;28;20032;-72
2022/07/05 07:21:02;;;;;;;10.68;7.85;;;;;;;;;;5109941;28;20099;-71
2022/07/05 07:23:28;;;;;;;10.32;7.43;;;;;;;;;;5110467;28;20491;-71
2022/07/05 07:25:54;;;;;;;9.13;7.50;;;;;;;;;;5110403;28;20024;-71
2022/07/05 07:28:20;;;;;;;9.40;7.35;;;;;;;;;;5110139;28;20026;-71
2022/07/05 07:30:46;;;;;;;9.65;7.57;;;;;;;;;;5109234;28;20034;-75
2022/07/05 07:33:12;;;;;;;10.57;7.18;;;;;;;;;;5108731;28;20476;-72
2022/07/05 07:35:38;;;;;;;10.32;7.80;;;;;;;;;;5109055;28;20043;-72
2022/07/05 07:38:05;;;;;;;11.02;8.10;;;;;;;;;;5110028;28;20483;-72
2022/07/05 07:40:31;;;;;;;10.25;7.70;;;;;;;;;;5109139;28;20020;-72
2022/07/05 07:42:57;;;;;;;9.95;6.70;;;;;;;;;;5109382;28;20052;-73
2022/07/05 07:45:45;;;;;;;10.48;7.40;;;;;;;;;;5116448;27;20478;-70
2022/07/05 07:48:12;;;;;;;9.48;7.28;;;;;;;;;;5110845;28;20038;-72
2022/07/05 07:50:38;;;;;;;9.88;7.20;;;;;;;;;;5110622;28;20480;-73
2022/07/05 07:53:04;;;;;;;10.20;7.95;;;;;;;;;;5110956;28;20036;-74
2022/07/05 07:55:30;;;;;;;10.90;7.63;;;;;;;;;;5110278;28;20080;-71
2022/07/05 07:57:56;;;;;;;10.65;8.13;;;;;;;;;;5110718;28;20020;-75
2022/07/05 08:00:22;;;;;;;11.90;7.30;;;;;;;;;;5110483;28;20035;-76
2022/07/05 08:02:49;;;;;;;11.88;7.22;;;;;;;;;;5110430;28;20077;-75
2022/07/05 08:05:15;;;;;;;10.93;7.40;;;;;;;;;;5110791;28;20032;-74
2022/07/05 08:07:41;;;;;;;11.02;7.53;;;;;;;;;;5108683;28;20028;-74
2022/07/05 08:10:08;;;;;;;10.80;7.07;;;;;;;;;;5099029;28;20028;-73
2022/07/05 08:12:34;;;;;;;9.13;6.85;;;;;;;;;;5106890;28;20031;-74
2022/07/05 08:15:00;;;;;;;10.68;7.38;;;;;;;;;;5106271;28;20440;-72
2022/07/05 08:17:26;;;;;;;11.52;7.15;;;;;;;;;;5105074;28;20052;-71
2022/07/05 08:22:37;;;;;;;9.40;6.80;;;;;;;;;;5110544;28;20102;-73
2022/07/05 08:25:03;;;;;;;9.43;7.05;;;;;;;;;;5109428;28;20431;-73
2022/07/05 08:27:30;;;;;;;11.30;6.82;;;;;;;;;;5110418;28;20028;-74
2022/07/05 08:29:56;;;;;;;9.45;6.78;;;;;;;;;;5108792;28;20031;-73
2022/07/05 08:32:22;;;;;;;11.63;6.75;;;;;;;;;;5107898;28;20024;-73
2022/07/05 08:34:48;;;;;;;9.80;6.95;;;;;;;;;;5109283;28;20028;-73
2022/07/05 08:37:14;;;;;;;9.75;6.75;;;;;;;;;;5109700;28;20348;-74
2022/07/05 08:39:41;;;;;;;9.48;7.38;;;;;;;;;;5109101;28;20110;-72
2022/07/05 08:42:10;;;;;;;12.50;7.55;;;;;;;;;;5110075;28;20094;-73
2022/07/05 08:44:38;;;;;;;10.57;7.95;;;;;;;;;;5108946;28;20052;-72
2022/07/05 08:47:08;;;;;;;8.32;6.85;;;;;;;;;;5109733;28;20016;-73
2022/07/05 08:49:35;;;;;;;8.70;6.53;;;;;;;;;;5109805;28;20073;-73
2022/07/05 08:52:03;;;;;;;10.18;7.00;;;;;;;;;;5108385;28;20102;-73
2022/07/05 08:54:31;;;;;;;8.82;6.88;;;;;;;;;;5109727;28;20077;-73
2022/07/05 08:56:57;;;;;;;10.50;7.20;;;;;;;;;;5096724;28;20046;-73
2022/07/05 08:59:23;;;;;;;10.50;7.18;;;;;;;;;;5095039;28;20024;-74
2022/07/05 09:01:50;;;;;;;8.85;6.60;;;;;;;;;;5091144;28;20043;-73
2022/07/05 09:04:18;;;;;;;8.10;6.07;;;;;;;;;;5073587;28;20111;-73
2022/07/05 09:06:47;;;;;;;9.43;6.40;;;;;;;;;;5106005;28;20066;-73
2022/07/05 09:09:17;;;;;;;10.82;8.15;;;;;;;;;;5113883;28;20027;-72
2022/07/05 09:11:46;;;;;;;9.52;7.15;;;;;;;;;;5113992;28;20020;-72
2022/07/05 09:14:23;;;;;;;9.27;7.13;;;;;;;;;;5114544;28;20463;-72
2022/07/05 09:16:49;;;;;;;9.45;7.28;;;;;;;;;;5111766;28;20036;-74
2022/07/05 09:19:15;;;;;;;10.55;6.93;;;;;;;;;;5115071;28;20475;-75
2022/07/05 09:21:41;;;;;;;8.23;6.03;;;;;;;;;;5114863;28;20033;-73
2022/07/05 09:24:11;;;;;;;8.45;6.35;;;;;;;;;;5115373;28;20023;-75
2022/07/05 09:26:41;;;;;;;9.07;6.28;;;;;;;;;;5114752;28;20027;-74
2022/07/05 09:29:11;;;;;;;9.13;6.35;;;;;;;;;;5096996;28;20021;-74
2022/07/05 09:31:39;;;;;;;8.95;5.72;;;;;;;;;;5094331;28;20024;-74
2022/07/05 09:34:06;;;;;;;7.25;5.68;;;;;;;;;;5094867;28;20024;-75
2022/07/05 09:36:58;;;;;;;8.18;5.68;;;;;;;;;;5093437;28;20028;-74
2022/07/05 09:39:30;;;;;;;8.88;6.13;;;;;;;;;;5090754;28;20032;-74
2022/07/05 09:42:17;;;;;;;9.05;6.85;;;;;;;;;;5098085;28;20030;-76
2022/07/05 09:44:44;;;;;;;8.52;5.53;;;;;;;;;;5114809;28;20043;-75
2022/07/05 09:47:12;;;;;;;9.35;6.10;;;;;;;;;;5093734;28;20054;-74
2022/07/05 09:50:05;;;;;;;10.27;6.05;;;;;;;;;;5090983;28;20016;-74
2022/07/05 09:52:38;;;;;;;11.52;6.53;;;;;;;;;;5104043;28;20081;-74
2022/07/05 09:55:05;;;;;;;9.20;6.20;;;;;;;;;;5113676;28;20020;-74
2022/07/05 09:57:31;;;;;;;9.13;5.38;;;;;;;;;;5102028;28;20480;-74
2022/07/05 10:00:02;;;;;;;8.70;6.65;;;;;;;;;;5106210;28;20108;-73
2022/07/05 10:02:38;;;;;;;8.95;6.18;;;;;;;;;;5109012;28;20604;-73
2022/07/05 10:05:11;;;;;;;9.02;6.40;;;;;;;;;;5095882;28;20486;-73
2022/07/05 10:07:40;;;;;;;8.90;6.15;;;;;;;;;;5114118;28;20028;-73
2022/07/05 10:10:06;;;;;;;8.25;6.25;;;;;;;;;;5113061;28;20015;-74
2022/07/05 10:12:34;;;;;;;7.82;5.95;;;;;;;;;;5103282;28;20039;-74
2022/07/05 10:15:01;;;;;;;10.77;6.72;;;;;;;;;;5092930;28;20380;-73
2022/07/05 10:17:28;;;;;;;11.25;6.40;;;;;;;;;;5096917;28;20603;-74
2022/07/05 10:19:55;;;;;;;8.55;6.30;;;;;;;;;;5103356;28;20020;-74
2022/07/05 10:22:21;;;;;;;11.55;6.85;;;;;;;;;;5071497;28;20027;-74
2022/07/05 10:24:49;;;;;;;8.70;6.18;;;;;;;;;;5090766;28;20032;-75
2022/07/05 10:27:15;;;;;;;9.95;6.50;;;;;;;;;;5091817;28;20024;-74
2022/07/05 10:29:41;;;;;;;7.75;6.03;;;;;;;;;;5090741;28;20048;-75
2022/07/05 10:32:13;;;;;;;7.30;5.68;;;;;;;;;;5077486;28;20023;-74
2022/07/05 10:34:40;;;;;;;8.37;6.00;;;;;;;;;;5074172;28;20024;-74
2022/07/05 10:37:06;;;;;;;7.68;5.85;;;;;;;;;;5074204;28;20025;-76
2022/07/05 10:39:33;;;;;;;10.13;5.90;;;;;;;;;;5074092;28;20032;-75
2022/07/05 10:41:59;;;;;;;9.25;6.25;;;;;;;;;;5102179;28;20020;-74
2022/07/05 10:44:26;;;;;;;9.00;5.97;;;;;;;;;;5093591;28;20048;-75
2022/07/05 10:47:08;;;;;;;12.60;6.22;;;;;;;;;;5101677;28;20052;-74
2022/07/05 10:49:34;;;;;;;7.85;5.50;;;;;;;;;;5072691;28;20067;-74
2022/07/05 10:52:00;;;;;;;8.40;5.95;;;;;;;;;;5073533;28;20029;-73
2022/07/05 10:54:26;;;;;;;8.85;5.80;;;;;;;;;;5072500;28;20035;-74
2022/07/05 10:57:11;;;;;;;9.95;6.40;;;;;;;;;;5073762;28;20472;-75
2022/07/05 10:59:56;;;;;;;7.93;5.85;;;;;;;;;;5073412;28;20028;-75
2022/07/05 11:02:22;;;;;;;10.35;6.63;;;;;;;;;;5073656;28;20465;-74
2022/07/05 11:04:48;;;;;;;8.30;5.60;;;;;;;;;;5073627;28;20032;-74
2022/07/05 11:07:14;;;;;;;8.27;6.00;;;;;;;;;;5073431;28;20021;-77
2022/07/05 11:09:58;;;;;;;10.93;5.82;;;;;;;;;;5084640;28;20096;-77
2022/07/05 11:12:36;;;;;;;8.45;5.93;;;;;;;;;;5080798;28;20050;-76
2022/07/05 11:15:10;;;;;;;8.35;5.30;;;;;;;;;;5076002;28;20024;-76
2022/07/05 11:17:37;;;;;;;9.07;5.47;;;;;;;;;;5083648;28;20031;-78
2022/07/05 11:20:08;;;;;;;8.07;5.20;;;;;;;;;;5093017;28;20077;-74
2022/07/05 11:22:35;;;;;;;7.80;5.67;;;;;;;;;;5086136;28;20024;-74
2022/07/05 11:25:02;;;;;;;10.05;5.55;;;;;;;;;;5098298;28;20366;-76
2022/07/05 11:27:28;;;;;;;6.65;4.95;;;;;;;;;;5108556;28;20028;-73
2022/07/05 11:29:55;;;;;;;8.13;5.32;;;;;;;;;;5090502;28;20059;-76
2022/07/05 11:32:36;;;;;;;7.45;5.00;;;;;;;;;;5105140;28;20020;-75
2022/07/05 11:35:18;;;;;;;7.88;5.40;;;;;;;;;;5092076;28;20056;-72
2022/07/05 11:38:00;;;;;;;8.40;5.00;;;;;;;;;;5092895;28;20506;-72
2022/07/05 11:40:28;;;;;;;6.22;4.90;;;;;;;;;;5092721;28;20111;-71
2022/07/05 11:42:54;;;;;;;6.78;5.00;;;;;;;;;;5093056;28;20020;-72
2022/07/05 11:45:20;;;;;;;7.82;5.20;;;;;;;;;;5108982;28;20055;-73
2022/07/05 11:47:46;;;;;;;8.63;5.43;;;;;;;;;;5093172;28;20464;-71
2022/07/05 11:50:13;;;;;;;10.27;5.30;;;;;;;;;;5093454;28;20028;-71
2022/07/05 11:52:39;;;;;;;7.00;5.18;;;;;;;;;;5109089;28;20154;-71
2022/07/05 11:55:11;;;;;;;7.18;4.63;;;;;;;;;;5093027;28;20085;-71
2022/07/05 11:57:38;;;;;;;7.03;4.35;;;;;;;;;;5093783;28;20024;-71
2022/07/05 12:00:05;;;;;;;9.18;5.32;;;;;;;;;;5093314;28;20447;-71
2022/07/05 12:02:31;;;;;;;7.07;5.25;;;;;;;;;;5093023;28;20024;-71
2022/07/05 12:04:58;;;;;;;7.15;4.95;;;;;;;;;;5093423;28;20094;-72
2022/07/05 12:07:27;;;;;;;5.88;4.63;;;;;;;;;;5093311;28;20032;-72
2022/07/05 12:12:43;;;;;;;6.78;4.72;;;;;;;;;;5093527;28;20103;-71
2022/07/05 12:15:12;;;;;;;7.78;4.75;;;;;;;;;;5093337;28;20031;-71
2022/07/05 12:17:39;;;;;;;8.40;4.60;;;;;;;;;;5108502;28;20538;-71
2022/07/05 12:20:06;;;;;;;8.00;4.85;;;;;;;;;;5093188;28;20380;-71
2022/07/05 12:22:33;;;;;;;8.05;5.03;;;;;;;;;;5093215;28;20430;-71
2022/07/05 12:25:01;;;;;;;6.90;5.18;;;;;;;;;;5092666;28;20407;-71
2022/07/05 12:27:31;;;;;;;6.57;4.90;;;;;;;;;;5093215;28;20050;-71
2022/07/05 12:29:57;;;;;;;8.25;5.63;;;;;;;;;;5108454;28;20111;-71
2022/07/05 12:32:23;;;;;;;9.13;5.22;;;;;;;;;;5096600;28;20024;-72
2022/07/05 12:34:50;;;;;;;8.25;5.35;;;;;;;;;;5097024;28;20031;-72
2022/07/05 12:37:26;;;;;;;8.85;5.50;;;;;;;;;;5096659;28;20437;-73
2022/07/05 12:40:09;;;;;;;9.93;6.40;;;;;;;;;;5096907;28;20020;-72
2022/07/05 12:42:38;;;;;;;7.22;5.32;;;;;;;;;;5097065;28;20099;-72
2022/07/05 12:45:10;;;;;;;6.72;4.97;;;;;;;;;;5096136;28;20130;-72
2022/07/05 12:47:37;;;;;;;7.65;4.80;;;;;;;;;;5096649;28;20051;-71
2022/07/05 12:50:04;;;;;;;7.05;5.32;;;;;;;;;;5096606;28;20058;-70
2022/07/05 12:52:30;;;;;;;7.80;5.15;;;;;;;;;;5096049;28;20051;-71
2022/07/05 12:58:03;;;;;;;6.97;5.03;;;;;;;;;;5096372;28;20058;-71
2022/07/05 13:00:29;;;;;;;6.07;4.13;;;;;;;;;;5096592;28;20487;-71
2022/07/05 13:02:56;;;;;;;7.65;5.65;;;;;;;;;;5096452;28;20468;-71
2022/07/05 13:05:26;;;;;;;8.30;5.32;;;;;;;;;;5096027;28;20028;-70
2022/07/05 13:07:54;;;;;;;9.02;5.53;;;;;;;;;;5096280;28;20464;-73
2022/07/05 13:10:34;;;;;;;10.50;5.40;;;;;;;;;;5096193;28;20023;-71
2022/07/05 13:13:02;;;;;;;8.25;4.93;;;;;;;;;;5095823;28;20017;-71
2022/07/05 13:15:28;;;;;;;7.95;5.63;;;;;;;;;;5111871;28;20020;-72
2022/07/05 13:17:54;;;;;;;7.30;5.05;;;;;;;;;;5111841;28;20032;-71
2022/07/05 13:20:22;;;;;;;6.05;4.50;;;;;;;;;;5095505;28;20032;-72
2022/07/05 13:22:49;;;;;;;10.55;5.43;;;;;;;;;;5096078;28;20024;-71
2022/07/05 13:25:15;;;;;;;6.30;4.57;;;;;;;;;;5095853;28;20032;-72
2022/07/05 13:27:42;;;;;;;8.70;5.32;;;;;;;;;;5095504;28;20098;-71
2022/07/05 13:30:09;;;;;;;7.03;4.75;;;;;;;;;;5095736;28;20024;-72
2022/07/05 13:32:35;;;;;;;5.32;4.10;;;;;;;;;;5111434;28;20102;-72
2022/07/05 13:35:01;;;;;;;7.38;4.78;;;;;;;;;;5095363;28;20024;-72
2022/07/05 13:37:27;;;;;;;8.52;4.80;;;;;;;;;;5095482;28;20024;-72
2022/07/05 13:39:53;;;;;;;5.85;4.07;;;;;;;;;;5111362;28;20033;-72
2022/07/05 13:42:19;;;;;;;8.70;4.70;;;;;;;;;;5095163;28;20020;-73
2022/07/05 13:44:45;;;;;;;7.80;4.82;;;;;;;;;;5111065;28;20076;-72
2022/07/05 13:47:11;;;;;;;6.50;4.22;;;;;;;;;;5111768;28;20031;-72
2022/07/05 13:49:40;;;;;;;5.85;3.92;;;;;;;;;;5095313;28;20024;-72
2022/07/05 13:52:06;;;;;;;5.55;4.07;;;;;;;;;;5094994;28;20531;-71
2022/07/05 13:54:32;;;;;;;7.03;4.47;;;;;;;;;;5095013;28;20484;-72
2022/07/05 13:56:58;;;;;;;7.10;3.90;;;;;;;;;;5111153;28;20031;-72
2022/07/05 13:59:25;;;;;;;8.35;4.55;;;;;;;;;;5095253;28;20024;-73
2022/07/05 14:01:51;;;;;;;7.40;4.25;;;;;;;;;;5094810;28;20035;-71
2022/07/05 14:04:17;;;;;;;5.05;3.70;;;;;;;;;;5094972;28;20039;-72
2022/07/05 14:06:43;;;;;;;9.40;4.63;;;;;;;;;;5095119;28;20471;-72
2022/07/05 14:09:09;;;;;;;5.72;4.07;;;;;;;;;;5094625;28;20024;-73
2022/07/05 14:11:35;;;;;;;5.68;3.42;;;;;;;;;;5094990;28;20031;-72
2022/07/05 14:14:02;;;;;;;5.40;3.88;;;;;;;;;;5094827;28;20077;-72
2022/07/05 14:16:28;;;;;;;8.38;4.75;;;;;;;;;;5094477;28;20025;-72
2022/07/05 14:18:56;;;;;;;6.30;4.53;;;;;;;;;;5110566;28;20407;-72
2022/07/05 14:21:22;;;;;;;6.35;3.95;;;;;;;;;;5094786;28;20426;-72
2022/07/05 14:23:48;;;;;;;8.18;4.03;;;;;;;;;;5094235;28;20388;-72
2022/07/05 14:26:15;;;;;;;5.10;3.58;;;;;;;;;;5110465;28;20039;-71
2022/07/05 14:28:41;;;;;;;5.13;3.30;;;;;;;;;;5094596;28;20026;-71
2022/07/05 14:31:07;;;;;;;6.00;3.35;;;;;;;;;;5094290;28;20051;-71
2022/07/05 14:33:33;;;;;;;6.47;3.80;;;;;;;;;;5094635;28;20072;-72
2022/07/05 14:36:00;;;;;;;7.43;4.30;;;;;;;;;;5094815;28;20085;-72
2022/07/05 14:38:26;;;;;;;5.93;3.53;;;;;;;;;;5094228;28;20065;-73
2022/07/05 14:40:53;;;;;;;7.30;3.95;;;;;;;;;;5094474;28;20030;-72
2022/07/05 14:43:19;;;;;;;5.03;3.53;;;;;;;;;;5094380;28;20016;-72
2022/07/05 14:45:45;;;;;;;5.75;3.92;;;;;;;;;;5093938;28;20039;-72
2022/07/05 14:48:11;;;;;;;6.32;4.03;;;;;;;;;;5094397;28;20052;-72
2022/07/05 14:50:37;;;;;;;8.40;3.67;;;;;;;;;;5094013;28;20047;-71
2022/07/05 14:53:07;;;;;;;7.20;4.38;;;;;;;;;;5093991;28;20043;-72
2022/07/05 14:55:34;;;;;;;5.80;3.75;;;;;;;;;;5094441;28;20102;-72
2022/07/05 14:58:00;;;;;;;5.75;3.70;;;;;;;;;;5093825;28;20020;-73
2022/07/05 15:00:26;;;;;;;6.20;3.70;;;;;;;;;;5094067;28;20028;-72
2022/07/05 15:02:52;;;;;;;4.88;3.40;;;;;;;;;;5094047;28;20059;-72
2022/07/05 15:05:19;;;;;;;7.05;3.60;;;;;;;;;;5093511;28;20032;-72
2022/07/05 15:07:45;;;;;;;5.90;3.72;;;;;;;;;;5094027;28;20020;-71
2022/07/05 15:10:11;;;;;;;6.28;3.40;;;;;;;;;;5093817;28;20103;-72
2022/07/05 15:12:37;;;;;;;4.70;3.30;;;;;;;;;;5093399;28;20027;-71
2022/07/05 15:15:04;;;;;;;6.00;4.03;;;;;;;;;;5093660;28;20032;-72
2022/07/05 15:17:32;;;;;;;4.93;3.60;;;;;;;;;;5093617;28;20047;-72
2022/07/05 15:19:58;;;;;;;4.72;3.40;;;;;;;;;;5109033;28;20020;-71
2022/07/05 15:22:25;;;;;;;6.28;3.70;;;;;;;;;;5093930;28;20381;-72
2022/07/05 15:24:52;;;;;;;6.20;4.28;;;;;;;;;;5093475;28;20476;-71
2022/07/05 15:27:19;;;;;;;6.40;3.42;;;;;;;;;;5108920;28;20024;-71
2022/07/05 15:29:45;;;;;;;6.38;3.80;;;;;;;;;;5093485;28;20384;-71
2022/07/05 15:32:11;;;;;;;6.28;4.10;;;;;;;;;;5093695;28;20461;-72
2022/07/05 15:34:37;;;;;;;8.35;4.47;;;;;;;;;;5093330;28;20028;-72
2022/07/05 15:37:03;;;;;;;7.10;5.28;;;;;;;;;;5093627;28;20020;-72
2022/07/05 15:39:32;;;;;;;15.27;5.57;;;;;;;;;;5093707;28;20028;-73
2022/07/05 15:42:00;;;;;;;7.50;4.65;;;;;;;;;;5093142;28;20018;-73
2022/07/05 15:44:27;;;;;;;10.25;4.80;;;;;;;;;;5109032;28;20048;-73
2022/07/05 15:46:59;;;;;;;8.35;4.93;;;;;;;;;;5093078;28;20384;-73
2022/07/05 15:49:25;;;;;;;9.15;5.45;;;;;;;;;;5093947;28;20100;-73
2022/07/05 15:51:52;;;;;;;7.28;4.95;;;;;;;;;;5109243;28;20492;-73
2022/07/05 15:54:18;;;;;;;7.13;4.80;;;;;;;;;;5108777;28;20111;-71
2022/07/05 15:56:45;;;;;;;9.32;5.20;;;;;;;;;;5093519;28;20056;-73
2022/07/05 15:59:11;;;;;;;8.25;5.00;;;;;;;;;;5093572;28;20399;-74